Time;durP1;ratioP1;P1;durP2;ratioP2;P2;SDS_P1;SDS_P2;PMS_P1;PMS_P2;Temp;Humidity;BMP_temperature;BMP_pressure;BME280_temperature;BME280_humidity;BME280_pressure;Samples;Min_cycle;Max_cycle;Signal;HPM_P1;HPM_P2
2022/03/08 00:01:32;;;;;;;12.05;6.43;;;-0.40;99.90;;;;;;5105817;28;20032;-82
2022/03/08 00:03:58;;;;;;;16.30;6.70;;;-0.40;99.90;;;;;;5113193;28;20015;-82
2022/03/08 00:06:35;;;;;;;13.15;7.63;;;-0.30;99.90;;;;;;5111645;28;20031;-82
2022/03/08 00:09:00;;;;;;;13.07;7.88;;;-0.30;99.90;;;;;;5109018;28;20026;-82
2022/03/08 00:11:26;;;;;;;10.52;6.72;;;-0.30;99.90;;;;;;5098792;28;20380;-82
2022/03/08 00:13:52;;;;;;;15.90;7.22;;;-0.30;99.90;;;;;;5092276;28;20020;-82
2022/03/08 00:16:18;;;;;;;9.85;6.40;;;-0.30;99.90;;;;;;5112945;28;20480;-82
2022/03/08 00:18:44;;;;;;;19.27;6.68;;;-0.30;99.90;;;;;;5112382;28;20581;-82
2022/03/08 00:21:12;;;;;;;13.65;7.38;;;-0.40;99.90;;;;;;5112584;28;20024;-82
2022/03/08 00:23:37;;;;;;;12.55;6.95;;;-0.40;99.90;;;;;;5112156;28;20402;-82
2022/03/08 00:26:04;;;;;;;9.15;6.40;;;-0.40;99.90;;;;;;5112723;28;20020;-83
2022/03/08 00:28:30;;;;;;;13.38;6.40;;;-0.40;99.90;;;;;;5111460;28;20058;-81
2022/03/08 00:30:56;;;;;;;12.98;6.82;;;-0.40;99.90;;;;;;5112832;28;20043;-82
2022/03/08 00:33:25;;;;;;;10.25;6.15;;;-0.40;99.90;;;;;;5111941;28;20023;-82
2022/03/08 00:35:52;;;;;;;12.48;6.63;;;-0.40;99.90;;;;;;5094316;28;20055;-82
2022/03/08 00:38:18;;;;;;;8.95;6.45;;;-0.40;99.90;;;;;;5111988;28;20036;-81
2022/03/08 00:40:44;;;;;;;9.45;6.25;;;-0.40;99.90;;;;;;5092569;28;20046;-82
2022/03/08 00:43:10;;;;;;;15.25;7.40;;;-0.40;99.90;;;;;;5092320;28;20082;-82
2022/03/08 00:45:52;;;;;;;13.48;6.65;;;-0.40;99.90;;;;;;5098247;28;20364;-82
2022/03/08 00:48:18;;;;;;;13.73;7.32;;;-0.40;99.90;;;;;;5092428;28;20063;-81
2022/03/08 00:50:43;;;;;;;19.38;7.03;;;-0.50;99.90;;;;;;5076371;28;20444;-82
2022/03/08 00:53:10;;;;;;;11.27;6.80;;;-0.40;99.90;;;;;;5105217;28;20028;-81
2022/03/08 00:55:36;;;;;;;10.63;6.70;;;-0.50;99.90;;;;;;5104219;28;20031;-81
2022/03/08 00:58:04;;;;;;;12.60;6.55;;;-0.50;99.90;;;;;;5111722;28;20027;-82
2022/03/08 01:00:33;;;;;;;9.50;6.30;;;-0.50;99.90;;;;;;5093478;28;20030;-81
2022/03/08 01:02:59;;;;;;;11.27;6.97;;;-0.50;99.90;;;;;;5111734;28;20102;-82
2022/03/08 01:05:25;;;;;;;8.32;5.45;;;-0.60;99.90;;;;;;5112555;28;20059;-81
2022/03/08 01:07:53;;;;;;;11.02;6.30;;;-0.60;99.90;;;;;;5114303;28;20032;-81
2022/03/08 01:10:21;;;;;;;11.38;6.70;;;-0.60;99.90;;;;;;5097570;28;20027;-81
2022/03/08 01:12:47;;;;;;;11.65;6.55;;;-0.60;99.90;;;;;;5115642;28;20032;-81
2022/03/08 01:15:15;;;;;;;10.90;6.05;;;-0.60;99.90;;;;;;5098061;28;20028;-81
2022/03/08 01:17:41;;;;;;;10.63;6.05;;;-0.60;99.90;;;;;;5101005;28;20078;-81
2022/03/08 01:20:08;;;;;;;13.95;7.47;;;-0.60;99.90;;;;;;5114770;28;20034;-81
2022/03/08 01:22:34;;;;;;;10.55;5.88;;;-0.60;99.90;;;;;;5115339;28;20028;-82
2022/03/08 01:25:00;;;;;;;8.02;5.97;;;-0.60;99.90;;;;;;5115651;28;20024;-81
2022/03/08 01:27:26;;;;;;;10.73;5.90;;;-0.70;99.90;;;;;;5097090;28;20028;-81
2022/03/08 01:30:00;;;;;;;9.90;6.05;;;-0.70;99.90;;;;;;5115743;28;20033;-81
2022/03/08 01:32:26;;;;;;;8.85;6.03;;;-0.70;99.90;;;;;;5096026;28;20023;-82
2022/03/08 01:34:52;;;;;;;11.57;7.03;;;-0.70;99.90;;;;;;5115705;28;20026;-81
2022/03/08 01:37:18;;;;;;;10.73;6.65;;;-0.80;99.90;;;;;;5105763;28;20548;-81
2022/03/08 01:39:44;;;;;;;13.27;6.22;;;-0.80;99.90;;;;;;5094692;28;20115;-81
2022/03/08 01:42:12;;;;;;;7.93;5.28;;;-0.70;99.90;;;;;;5107117;28;20077;-81
2022/03/08 01:44:40;;;;;;;8.57;5.45;;;-0.80;99.90;;;;;;5078012;28;20119;-81
2022/03/08 01:47:06;;;;;;;8.57;5.45;;;-0.80;99.90;;;;;;5108256;28;20064;-81
2022/03/08 01:49:32;;;;;;;6.43;5.13;;;-0.80;99.90;;;;;;5115320;28;20035;-81
2022/03/08 01:51:58;;;;;;;13.35;5.82;;;-0.80;99.90;;;;;;5115016;28;20031;-81
2022/03/08 01:54:23;;;;;;;14.45;6.32;;;-0.80;99.90;;;;;;5114419;28;20038;-81
2022/03/08 01:56:49;;;;;;;9.25;5.72;;;-0.80;99.90;;;;;;5115442;28;20099;-81
2022/03/08 01:59:17;;;;;;;14.88;6.53;;;-0.80;99.90;;;;;;5114691;28;20074;-81
2022/03/08 02:01:43;;;;;;;14.52;6.70;;;-0.80;99.90;;;;;;5101895;28;20468;-81
2022/03/08 02:04:08;;;;;;;10.85;6.18;;;-0.90;99.90;;;;;;5095272;28;20028;-80
2022/03/08 02:06:48;;;;;;;12.00;5.88;;;-0.90;99.90;;;;;;5114737;28;20537;-81
2022/03/08 02:09:13;;;;;;;10.57;5.72;;;-0.90;99.90;;;;;;5115017;28;20024;-81
2022/03/08 02:11:39;;;;;;;10.75;5.80;;;-0.90;99.90;;;;;;5114590;28;20443;-82
2022/03/08 02:14:08;;;;;;;9.70;5.78;;;-1.00;99.90;;;;;;5094316;28;20076;-82
2022/03/08 02:16:34;;;;;;;9.80;5.90;;;-1.00;99.90;;;;;;5105585;28;20024;-81
2022/03/08 02:19:00;;;;;;;6.78;5.20;;;-1.00;99.90;;;;;;5113612;28;20369;-81
2022/03/08 02:21:33;;;;;;;8.98;5.75;;;-1.00;99.90;;;;;;5115052;28;20514;-81
2022/03/08 02:23:59;;;;;;;8.82;5.78;;;-0.90;99.90;;;;;;5079983;28;20085;-81
2022/03/08 02:26:31;;;;;;;11.68;5.80;;;-0.90;99.90;;;;;;5092919;28;20454;-82
2022/03/08 02:28:57;;;;;;;10.27;5.85;;;-0.90;99.90;;;;;;5113756;28;20023;-82
2022/03/08 02:31:23;;;;;;;9.93;5.80;;;-1.00;99.90;;;;;;5114081;28;20413;-81
2022/03/08 02:33:50;;;;;;;14.98;6.47;;;-1.00;99.90;;;;;;5114125;28;20035;-81
2022/03/08 02:36:16;;;;;;;10.18;5.63;;;-1.00;99.90;;;;;;5104879;28;20035;-81
2022/03/08 02:38:41;;;;;;;9.52;4.80;;;-1.00;99.90;;;;;;5072660;28;20044;-81
2022/03/08 02:41:07;;;;;;;9.57;4.97;;;-1.00;99.90;;;;;;5081161;28;20046;-81
2022/03/08 02:43:33;;;;;;;17.15;5.75;;;-1.00;99.90;;;;;;5094098;28;20077;-81
2022/03/08 02:46:11;;;;;;;11.18;6.18;;;-1.00;99.90;;;;;;5093771;28;20028;-81
2022/03/08 02:48:36;;;;;;;9.35;5.80;;;-1.10;99.90;;;;;;5093979;28;20055;-81
2022/03/08 02:51:03;;;;;;;9.38;5.07;;;-1.10;99.90;;;;;;5092038;28;20067;-81
2022/03/08 02:53:35;;;;;;;12.80;5.40;;;-1.10;99.90;;;;;;5093978;28;20107;-81
2022/03/08 02:56:00;;;;;;;9.20;5.30;;;-1.10;99.90;;;;;;5092061;28;20040;-81
2022/03/08 02:58:26;;;;;;;7.40;5.30;;;-1.10;99.90;;;;;;5091349;28;20058;-81
2022/03/08 03:00:56;;;;;;;12.27;6.45;;;-1.10;99.90;;;;;;5072812;28;20026;-81
2022/03/08 03:03:22;;;;;;;10.90;4.90;;;-1.10;99.90;;;;;;5073739;28;20020;-81
2022/03/08 03:05:47;;;;;;;10.50;6.80;;;-1.10;99.90;;;;;;5091878;28;20053;-81
2022/03/08 03:08:19;;;;;;;8.40;5.47;;;-1.20;99.90;;;;;;5093737;28;20024;-81
2022/03/08 03:10:45;;;;;;;11.00;5.65;;;-1.20;99.90;;;;;;5092768;28;20028;-81
2022/03/08 03:13:10;;;;;;;9.65;5.28;;;-1.20;99.90;;;;;;5093103;28;20032;-81
2022/03/08 03:15:36;;;;;;;7.70;5.30;;;-1.30;99.90;;;;;;5092126;28;20045;-81
2022/03/08 03:18:08;;;;;;;13.35;5.25;;;-1.30;99.90;;;;;;5084885;28;20372;-81
2022/03/08 03:20:34;;;;;;;6.80;4.40;;;-1.30;99.90;;;;;;5093618;28;20023;-81
2022/03/08 03:23:03;;;;;;;12.18;5.32;;;-1.30;99.90;;;;;;5091890;28;20031;-81
2022/03/08 03:25:28;;;;;;;10.55;5.25;;;-1.30;99.90;;;;;;5092239;28;20494;-81
2022/03/08 03:27:54;;;;;;;12.15;5.95;;;-1.30;99.90;;;;;;5093311;28;20028;-81
2022/03/08 03:30:20;;;;;;;10.82;5.70;;;-1.30;99.90;;;;;;5090313;28;20020;-81
2022/03/08 03:32:46;;;;;;;12.38;5.53;;;-1.30;99.90;;;;;;5087149;28;20032;-82
2022/03/08 03:35:13;;;;;;;10.95;5.57;;;-1.30;99.90;;;;;;5088312;28;20048;-81
2022/03/08 03:37:40;;;;;;;10.38;5.57;;;-1.40;99.90;;;;;;5092014;28;20123;-81
2022/03/08 03:40:06;;;;;;;12.93;7.55;;;-1.40;99.90;;;;;;5111975;28;20033;-81
2022/03/08 03:42:32;;;;;;;10.88;5.28;;;-1.40;99.90;;;;;;5113533;28;20024;-82
2022/03/08 03:44:58;;;;;;;11.75;5.25;;;-1.50;99.90;;;;;;5094289;28;20068;-82
2022/03/08 03:47:23;;;;;;;12.18;6.10;;;-1.40;99.90;;;;;;5095272;28;20042;-81
2022/03/08 03:49:49;;;;;;;7.93;5.65;;;-1.40;99.90;;;;;;5093855;28;20118;-82
2022/03/08 03:52:15;;;;;;;13.05;5.50;;;-1.50;99.90;;;;;;5112404;28;20024;-81
2022/03/08 03:54:40;;;;;;;6.30;4.60;;;-1.40;99.90;;;;;;5112036;28;20419;-81
2022/03/08 03:57:08;;;;;;;10.45;5.43;;;-1.50;99.90;;;;;;5095096;28;20348;-82
2022/03/08 03:59:33;;;;;;;9.15;5.70;;;-1.50;99.90;;;;;;5112491;28;20027;-82
2022/03/08 04:01:59;;;;;;;7.72;5.13;;;-1.50;99.90;;;;;;5112192;28;20387;-82
2022/03/08 04:04:34;;;;;;;10.88;5.30;;;-1.50;99.90;;;;;;5113290;28;20492;-81
2022/03/08 04:07:00;;;;;;;;;;;-1.50;99.90;;;;;;5112862;28;20024;-81
2022/03/08 04:09:25;;;;;;;;;;;-1.50;99.90;;;;;;5103529;28;19908;-82
2022/03/08 04:11:57;;;;;;;12.53;5.90;;;-1.50;99.90;;;;;;5092735;28;20294;-82
2022/03/08 04:14:23;;;;;;;7.43;5.13;;;-1.50;99.90;;;;;;5093855;28;20414;-81
2022/03/08 04:16:48;;;;;;;7.97;4.93;;;-1.50;99.90;;;;;;5092809;28;20074;-81
2022/03/08 04:19:15;;;;;;;7.28;4.65;;;-1.50;99.90;;;;;;5107703;28;20024;-81
2022/03/08 04:21:40;;;;;;;7.18;4.70;;;-1.50;99.90;;;;;;5109627;28;20024;-82
2022/03/08 04:24:06;;;;;;;7.53;5.38;;;-1.50;99.90;;;;;;5096061;28;20086;-82
2022/03/08 04:26:33;;;;;;;8.60;5.70;;;-1.50;99.90;;;;;;5085693;28;20421;-82
2022/03/08 04:28:58;;;;;;;8.23;5.32;;;-1.60;99.90;;;;;;5112737;28;20483;-82
2022/03/08 04:31:34;;;;;;;9.27;5.18;;;-1.60;99.90;;;;;;5093546;28;20024;-81
2022/03/08 04:33:59;;;;;;;10.40;5.45;;;-1.60;99.90;;;;;;5093980;28;20172;-80
2022/03/08 04:36:25;;;;;;;8.43;5.20;;;-1.60;99.90;;;;;;5107604;28;20048;-81
2022/03/08 04:38:58;;;;;;;10.95;5.32;;;-1.60;99.90;;;;;;5097076;28;20043;-81
2022/03/08 04:41:24;;;;;;;10.10;5.50;;;-1.70;99.90;;;;;;5112243;28;20107;-81
2022/03/08 04:43:51;;;;;;;7.95;5.43;;;-1.70;99.90;;;;;;5116769;28;20086;-81
2022/03/08 04:46:17;;;;;;;10.48;5.55;;;-1.70;99.90;;;;;;5115783;28;20072;-81
2022/03/08 04:48:50;;;;;;;10.23;6.10;;;-1.70;99.90;;;;;;5116829;28;20375;-81
2022/03/08 04:51:16;;;;;;;9.95;4.90;;;-1.70;99.90;;;;;;5097898;28;20093;-81
2022/03/08 04:53:42;;;;;;;9.45;5.25;;;-1.80;99.90;;;;;;5109678;28;20032;-81
2022/03/08 04:56:14;;;;;;;7.47;5.43;;;-1.70;99.90;;;;;;5099198;28;20051;-81
2022/03/08 04:58:40;;;;;;;9.40;5.43;;;-1.70;99.90;;;;;;5115015;28;20031;-81
2022/03/08 05:01:15;;;;;;;10.27;5.28;;;-1.70;99.90;;;;;;5116327;28;20016;-81
2022/03/08 05:03:42;;;;;;;6.32;4.78;;;-1.70;99.90;;;;;;5116477;28;20024;-81
2022/03/08 05:06:09;;;;;;;10.13;5.90;;;-1.70;99.90;;;;;;5116345;28;20038;-81
2022/03/08 05:08:35;;;;;;;7.47;5.22;;;-1.70;99.90;;;;;;5097254;28;20486;-81
2022/03/08 05:11:01;;;;;;;8.68;5.65;;;-1.70;99.90;;;;;;5119978;27;20076;-81
2022/03/08 05:13:30;;;;;;;17.10;5.68;;;-1.80;99.90;;;;;;5123931;27;20053;-80
2022/03/08 05:15:58;;;;;;;11.73;6.20;;;-1.80;99.90;;;;;;5100282;28;20059;-81
2022/03/08 05:18:24;;;;;;;12.75;5.80;;;-1.80;99.90;;;;;;5115361;27;20069;-81
2022/03/08 05:20:51;;;;;;;8.40;5.78;;;-1.80;99.90;;;;;;5136715;27;20473;-81
2022/03/08 05:23:17;;;;;;;10.95;5.75;;;-1.90;99.90;;;;;;5126862;27;20046;-81
2022/03/08 05:25:50;;;;;;;8.93;5.72;;;-1.90;99.90;;;;;;5102732;28;20384;-81
2022/03/08 05:28:15;;;;;;;8.52;5.80;;;-1.90;99.90;;;;;;5097179;28;20063;-81
2022/03/08 05:30:42;;;;;;;14.55;5.38;;;-1.90;99.90;;;;;;5103292;28;20062;-81
2022/03/08 05:33:08;;;;;;;8.30;4.85;;;-1.90;99.90;;;;;;5106452;28;20024;-81
2022/03/08 05:35:34;;;;;;;10.35;5.03;;;-1.80;99.90;;;;;;5096926;28;20095;-81
2022/03/08 05:38:01;;;;;;;7.63;4.95;;;-1.90;99.90;;;;;;5103025;28;20476;-81
2022/03/08 05:40:27;;;;;;;9.60;5.70;;;-1.90;99.90;;;;;;5114535;28;20621;-81
2022/03/08 05:42:52;;;;;;;11.85;5.13;;;-1.90;99.90;;;;;;5113126;28;20083;-81
2022/03/08 05:45:19;;;;;;;10.50;5.05;;;-1.90;99.90;;;;;;5097075;28;20084;-81
2022/03/08 05:47:45;;;;;;;6.60;4.70;;;-1.90;99.90;;;;;;5106562;28;20027;-81
2022/03/08 05:50:12;;;;;;;7.65;5.45;;;-1.90;99.90;;;;;;5115103;28;20031;-80
2022/03/08 05:52:38;;;;;;;7.70;4.82;;;-1.90;99.90;;;;;;5104461;28;20071;-81
2022/03/08 05:55:15;;;;;;;6.53;4.80;;;-1.90;99.90;;;;;;5085155;28;20124;-80
2022/03/08 05:57:40;;;;;;;13.90;5.75;;;-1.90;99.90;;;;;;5097365;28;20035;-81
2022/03/08 06:00:07;;;;;;;11.15;4.78;;;-1.90;99.90;;;;;;5112995;28;20035;-81
2022/03/08 06:02:36;;;;;;;7.15;4.68;;;-1.80;99.90;;;;;;5095589;28;20070;-81
2022/03/08 06:05:02;;;;;;;5.47;4.10;;;-1.90;99.90;;;;;;5090207;28;20035;-81
2022/03/08 06:07:28;;;;;;;7.88;5.15;;;-1.90;99.90;;;;;;5115226;28;20023;-81
2022/03/08 06:09:54;;;;;;;7.45;4.45;;;-1.90;99.90;;;;;;5096177;28;20112;-81
2022/03/08 06:12:20;;;;;;;14.18;5.20;;;-1.90;99.90;;;;;;5096122;28;20046;-81
2022/03/08 06:14:45;;;;;;;8.55;5.80;;;-1.90;99.90;;;;;;5114199;28;20019;-81
2022/03/08 06:17:11;;;;;;;7.03;4.57;;;-1.90;99.90;;;;;;5096111;28;20063;-82
2022/03/08 06:19:37;;;;;;;7.57;4.40;;;-1.90;99.90;;;;;;5113747;28;20054;-80
2022/03/08 06:22:03;;;;;;;8.15;4.45;;;-1.90;99.90;;;;;;5112298;28;20107;-81
2022/03/08 06:24:29;;;;;;;8.77;5.57;;;-1.90;99.90;;;;;;5086407;28;20084;-81
2022/03/08 06:26:55;;;;;;;7.85;4.60;;;-1.90;99.90;;;;;;5095943;28;20032;-81
2022/03/08 06:29:20;;;;;;;6.78;4.57;;;-1.80;99.90;;;;;;5096066;28;20360;-81
2022/03/08 06:31:46;;;;;;;9.10;4.80;;;-1.70;99.90;;;;;;5096102;28;20554;-81
2022/03/08 06:34:11;;;;;;;8.75;4.93;;;-1.70;99.90;;;;;;5114311;28;20490;-81
2022/03/08 06:36:39;;;;;;;10.10;4.90;;;-1.60;99.90;;;;;;5085598;28;20028;-81
2022/03/08 06:39:06;;;;;;;9.70;5.95;;;-1.60;99.90;;;;;;5102121;28;20047;-81
2022/03/08 06:41:32;;;;;;;8.90;5.55;;;-1.50;99.90;;;;;;5089715;28;20069;-81
2022/03/08 06:43:59;;;;;;;8.52;5.60;;;-1.50;99.90;;;;;;5103149;28;20028;-81
2022/03/08 06:46:25;;;;;;;9.93;5.72;;;-1.50;99.90;;;;;;5128099;27;20034;-81
2022/03/08 06:48:50;;;;;;;9.20;6.38;;;-1.50;99.90;;;;;;5102467;28;20032;-80
2022/03/08 06:51:16;;;;;;;8.70;5.90;;;-1.50;99.90;;;;;;5108018;28;20066;-80
2022/03/08 06:53:42;;;;;;;8.45;5.47;;;-1.40;99.90;;;;;;5103900;28;20043;-80
2022/03/08 06:56:07;;;;;;;10.55;6.05;;;-1.40;99.90;;;;;;5094239;28;20506;-80
2022/03/08 06:58:33;;;;;;;6.93;5.50;;;-1.30;99.90;;;;;;5109838;28;20039;-80
2022/03/08 07:00:58;;;;;;;11.85;5.75;;;-1.20;99.90;;;;;;5105610;27;20032;-80
2022/03/08 07:03:24;;;;;;;6.05;4.90;;;-1.20;99.90;;;;;;5098017;28;20051;-80
2022/03/08 07:05:51;;;;;;;8.57;5.72;;;-1.10;99.90;;;;;;5096916;28;20065;-80
2022/03/08 07:08:16;;;;;;;7.10;5.28;;;-1.00;99.90;;;;;;5117943;27;20023;-80
2022/03/08 07:10:42;;;;;;;10.27;5.05;;;-0.90;99.90;;;;;;5096994;28;20030;-81
2022/03/08 07:13:09;;;;;;;12.20;6.20;;;-0.90;99.90;;;;;;5082666;28;20524;-81
2022/03/08 07:15:34;;;;;;;8.93;6.05;;;-0.80;99.90;;;;;;5085769;28;20060;-81
2022/03/08 07:18:00;;;;;;;10.27;5.40;;;-0.80;99.90;;;;;;5093056;28;20553;-81
2022/03/08 07:20:25;;;;;;;8.55;5.22;;;-0.70;99.90;;;;;;5092971;28;20056;-80
2022/03/08 07:22:51;;;;;;;7.15;4.30;;;-0.60;99.90;;;;;;5092877;28;20020;-81
2022/03/08 07:25:16;;;;;;;9.30;5.55;;;-0.50;99.90;;;;;;5092784;28;20095;-81
2022/03/08 07:27:42;;;;;;;4.75;3.28;;;-0.40;99.90;;;;;;5092942;28;20115;-81
2022/03/08 07:30:09;;;;;;;4.28;3.17;;;-0.30;99.90;;;;;;5093270;28;20073;-81
2022/03/08 07:32:35;;;;;;;5.18;3.22;;;-0.30;99.90;;;;;;5092800;28;20107;-81
2022/03/08 07:35:01;;;;;;;6.28;3.40;;;-0.20;99.90;;;;;;5074724;28;20120;-81
2022/03/08 07:37:26;;;;;;;10.70;5.15;;;-0.10;99.90;;;;;;5092673;28;20038;-81
2022/03/08 07:39:54;;;;;;;10.38;5.20;;;0.00;99.90;;;;;;5092100;28;20036;-81
2022/03/08 07:42:20;;;;;;;14.80;6.60;;;0.00;99.90;;;;;;5074567;28;20020;-81
2022/03/08 07:44:45;;;;;;;11.32;6.82;;;0.10;99.90;;;;;;5092549;28;20085;-81
2022/03/08 07:47:11;;;;;;;16.00;8.43;;;0.10;99.90;;;;;;5074588;28;20422;-82
2022/03/08 07:49:37;;;;;;;24.65;9.18;;;0.20;99.90;;;;;;5092705;28;20032;-81
2022/03/08 07:52:03;;;;;;;19.45;10.13;;;0.30;99.90;;;;;;5074529;28;20051;-81
2022/03/08 07:54:30;;;;;;;17.02;9.50;;;0.40;99.90;;;;;;5092190;28;20031;-81
2022/03/08 07:56:55;;;;;;;17.05;9.50;;;0.40;99.90;;;;;;5092289;28;20032;-81
2022/03/08 07:59:21;;;;;;;22.02;10.65;;;0.50;99.90;;;;;;5092551;28;20024;-82
2022/03/08 08:01:46;;;;;;;22.20;11.23;;;0.50;99.90;;;;;;5074368;28;20016;-82
2022/03/08 08:04:12;;;;;;;20.83;10.35;;;0.60;99.90;;;;;;5092321;28;20028;-82
2022/03/08 08:06:38;;;;;;;20.67;10.43;;;0.70;99.90;;;;;;5092989;28;20479;-82
2022/03/08 08:09:03;;;;;;;21.88;10.55;;;0.70;99.90;;;;;;5083553;28;20032;-82
2022/03/08 08:11:29;;;;;;;18.10;10.30;;;0.80;99.90;;;;;;5104240;28;20023;-82
2022/03/08 08:13:55;;;;;;;20.98;12.25;;;0.90;99.90;;;;;;5091978;28;20016;-82
2022/03/08 08:16:23;;;;;;;19.77;10.20;;;0.90;99.90;;;;;;5112910;28;20093;-82
2022/03/08 08:18:50;;;;;;;21.27;10.90;;;1.00;99.90;;;;;;5116809;28;20032;-82
2022/03/08 08:21:16;;;;;;;21.38;12.35;;;1.10;99.90;;;;;;5116922;28;20019;-82
2022/03/08 08:23:41;;;;;;;26.63;14.90;;;1.10;99.90;;;;;;5116348;28;20020;-82
2022/03/08 08:26:08;;;;;;;34.60;15.18;;;1.20;99.90;;;;;;5098474;28;20066;-82
2022/03/08 08:28:34;;;;;;;34.55;14.55;;;1.30;99.90;;;;;;5116709;28;20058;-82
2022/03/08 08:30:59;;;;;;;28.70;13.10;;;1.40;99.90;;;;;;5116513;28;20059;-82
2022/03/08 08:33:25;;;;;;;24.65;10.82;;;1.50;99.90;;;;;;5116750;28;20023;-83
2022/03/08 08:35:51;;;;;;;17.60;10.43;;;1.70;99.90;;;;;;5112491;28;20893;-82
2022/03/08 08:38:16;;;;;;;18.02;10.05;;;1.70;99.90;;;;;;5107288;28;20194;-82
2022/03/08 08:40:44;;;;;;;16.52;9.95;;;1.80;99.90;;;;;;5080562;28;20033;-81
2022/03/08 08:43:09;;;;;;;22.40;9.88;;;1.80;99.90;;;;;;5117368;28;20024;-82
2022/03/08 08:45:36;;;;;;;18.73;10.07;;;1.90;99.90;;;;;;5116545;28;20479;-81
2022/03/08 08:48:07;;;;;;;18.73;9.43;;;1.90;99.90;;;;;;5117005;28;20080;-82
2022/03/08 08:50:32;;;;;;;23.05;10.05;;;2.00;99.90;;;;;;5116595;28;20031;-82
2022/03/08 08:52:58;;;;;;;17.30;9.18;;;2.10;99.90;;;;;;5114084;28;20023;-82
2022/03/08 08:55:25;;;;;;;14.38;9.10;;;2.20;99.90;;;;;;5078200;28;20024;-82
2022/03/08 08:57:50;;;;;;;18.00;9.40;;;2.30;99.90;;;;;;5096427;28;20107;-82
2022/03/08 09:00:19;;;;;;;17.52;9.43;;;2.40;99.90;;;;;;5097140;28;20107;-82
2022/03/08 09:02:45;;;;;;;14.10;8.65;;;2.40;99.90;;;;;;5095666;28;20076;-82
2022/03/08 09:05:12;;;;;;;25.70;9.38;;;2.50;99.90;;;;;;5095679;28;20024;-82
2022/03/08 09:07:39;;;;;;;14.45;8.60;;;2.60;99.90;;;;;;5077515;28;20028;-82
2022/03/08 09:10:06;;;;;;;15.15;9.05;;;2.60;99.90;;;;;;5095313;28;20027;-82
2022/03/08 09:12:32;;;;;;;15.93;9.43;;;2.70;99.90;;;;;;5095447;28;20035;-82
2022/03/08 09:14:58;;;;;;;16.02;8.85;;;2.80;99.90;;;;;;5077418;28;20028;-82
2022/03/08 09:17:24;;;;;;;24.23;9.65;;;2.80;99.90;;;;;;5095467;28;20035;-82
2022/03/08 09:19:49;;;;;;;21.67;9.55;;;2.80;99.90;;;;;;5095403;28;20016;-82
2022/03/08 09:22:15;;;;;;;15.15;8.05;;;2.90;99.90;;;;;;5095262;28;20031;-82
2022/03/08 09:24:41;;;;;;;18.90;8.30;;;2.90;99.90;;;;;;5095037;28;20468;-83
2022/03/08 09:27:07;;;;;;;20.02;9.30;;;3.00;99.90;;;;;;5095313;28;20027;-83
2022/03/08 09:29:33;;;;;;;29.45;8.90;;;3.00;99.90;;;;;;5095134;28;20035;-83
2022/03/08 09:31:58;;;;;;;15.65;8.13;;;3.20;99.90;;;;;;5095031;28;20060;-83
2022/03/08 09:34:24;;;;;;;28.10;10.77;;;3.30;99.90;;;;;;5077086;28;20055;-83
2022/03/08 09:36:50;;;;;;;19.92;9.93;;;3.40;99.90;;;;;;5095042;28;20027;-83
2022/03/08 09:39:16;;;;;;;17.55;9.30;;;3.50;99.90;;;;;;5076565;28;20094;-83
2022/03/08 09:41:42;;;;;;;17.77;9.20;;;3.50;99.90;;;;;;5095053;28;20096;-83
2022/03/08 09:44:14;;;;;;;18.20;9.93;;;3.60;99.90;;;;;;5095189;28;20016;-83
2022/03/08 09:46:41;;;;;;;21.42;9.20;;;3.70;99.90;;;;;;5094685;28;20024;-83
2022/03/08 09:49:06;;;;;;;17.30;9.07;;;3.80;99.90;;;;;;5094243;28;20020;-83
2022/03/08 09:51:35;;;;;;;16.48;8.40;;;3.80;99.90;;;;;;5100484;28;20031;-83
2022/03/08 09:54:01;;;;;;;19.23;8.32;;;3.80;99.90;;;;;;5114582;28;20012;-83
2022/03/08 09:56:27;;;;;;;19.83;9.00;;;3.90;99.90;;;;;;5114929;28;20081;-83
2022/03/08 09:58:53;;;;;;;14.98;7.70;;;4.00;99.90;;;;;;5114894;28;20070;-83
2022/03/08 10:01:18;;;;;;;14.70;7.55;;;4.00;99.90;;;;;;5115094;28;20023;-83
2022/03/08 10:03:46;;;;;;;15.07;6.82;;;4.10;99.90;;;;;;5109327;28;20026;-83
2022/03/08 10:06:12;;;;;;;13.68;7.43;;;4.20;99.90;;;;;;5094415;28;20030;-83
2022/03/08 10:08:38;;;;;;;12.65;6.15;;;4.30;99.90;;;;;;5094232;28;20020;-83
2022/03/08 10:11:09;;;;;;;12.27;5.25;;;4.40;99.90;;;;;;5094406;28;20039;-83
2022/03/08 10:13:40;;;;;;;14.40;5.55;;;4.50;99.90;;;;;;5097973;28;20028;-83
2022/03/08 10:16:25;;;;;;;9.98;4.18;;;4.60;99.90;;;;;;5114612;28;20028;-83
2022/03/08 10:18:53;;;;;;;4.82;2.67;;;4.70;99.90;;;;;;5107607;28;20027;-82
2022/03/08 10:21:43;;;;;;;8.23;3.20;;;4.90;99.90;;;;;;5100949;28;20026;-83
2022/03/08 10:24:13;;;;;;;2.63;2.10;;;5.00;99.90;;;;;;5094769;28;20118;-84
2022/03/08 10:27:10;;;;;;;6.55;2.70;;;5.10;99.90;;;;;;5106915;28;20095;-84
2022/03/08 10:29:38;;;;;;;5.63;2.58;;;5.20;99.90;;;;;;5095892;28;20047;-84
2022/03/08 10:32:06;;;;;;;8.48;2.58;;;5.20;99.90;;;;;;5093900;28;20384;-84
2022/03/08 10:34:32;;;;;;;4.72;3.08;;;5.30;99.90;;;;;;5093355;28;20126;-84
2022/03/08 10:37:20;;;;;;;6.03;2.42;;;5.40;99.90;;;;;;5093905;28;20141;-83
2022/03/08 10:40:00;;;;;;;4.05;2.65;;;5.50;99.90;;;;;;5074749;28;20044;-84
2022/03/08 10:42:26;;;;;;;5.95;2.65;;;5.50;99.90;;;;;;5093836;28;20024;-87
2022/03/08 10:45:04;;;;;;;4.03;3.10;;;5.60;99.90;;;;;;5093721;28;20020;-88
2022/03/08 10:47:42;;;;;;;6.28;3.17;;;5.70;99.90;;;;;;5093748;28;20031;-87
2022/03/08 10:50:09;;;;;;;4.07;2.03;;;5.80;99.90;;;;;;5093735;28;20028;-87
2022/03/08 10:52:37;;;;;;;4.97;2.45;;;5.80;99.90;;;;;;5075064;28;20514;-87
2022/03/08 10:55:21;;;;;;;3.85;2.47;;;5.80;99.90;;;;;;5093594;28;20170;-87
2022/03/08 10:57:50;;;;;;;9.15;2.45;;;5.90;99.90;;;;;;5075412;28;20027;-87
2022/03/08 11:00:17;;;;;;;8.15;2.30;;;5.90;99.90;;;;;;5093424;28;20016;-87
2022/03/08 11:02:55;;;;;;;7.55;2.55;;;6.00;99.90;;;;;;5093344;28;20115;-87
2022/03/08 11:05:23;;;;;;;3.10;1.95;;;6.00;99.90;;;;;;5075406;28;20020;-87
2022/03/08 11:07:49;;;;;;;7.05;2.22;;;6.10;99.90;;;;;;5074862;28;20028;-87
2022/03/08 11:10:17;;;;;;;2.45;1.90;;;6.20;99.90;;;;;;5093286;28;20564;-88
2022/03/08 11:12:43;;;;;;;4.05;2.00;;;6.20;99.90;;;;;;5093184;28;20025;-87
2022/03/08 11:15:10;;;;;;;2.60;1.83;;;6.30;99.90;;;;;;5093489;28;20035;-87
2022/03/08 11:17:38;;;;;;;8.43;2.97;;;6.50;99.30;;;;;;5093209;28;20020;-87
2022/03/08 11:20:09;;;;;;;2.55;1.65;;;6.50;99.10;;;;;;5074895;28;20042;-87
2022/03/08 11:22:36;;;;;;;5.93;2.08;;;6.60;94.60;;;;;;5092661;28;20024;-86
2022/03/08 11:25:02;;;;;;;2.60;1.98;;;6.60;97.80;;;;;;5074492;28;20020;-87
2022/03/08 11:27:28;;;;;;;3.40;2.10;;;6.70;94.30;;;;;;5074873;28;20028;-87
2022/03/08 11:29:53;;;;;;;4.28;1.73;;;6.70;93.70;;;;;;5074771;28;20388;-86
2022/03/08 11:32:29;;;;;;;2.95;1.75;;;6.70;86.90;;;;;;5092753;28;20028;-86
2022/03/08 11:35:01;;;;;;;3.92;2.20;;;6.70;91.70;;;;;;5074574;28;20119;-86
2022/03/08 11:37:29;;;;;;;5.72;2.33;;;6.70;85.70;;;;;;5094521;28;20111;-86
2022/03/08 11:40:13;;;;;;;6.32;2.05;;;6.70;83.60;;;;;;5108925;28;20122;-86
2022/03/08 11:42:45;;;;;;;5.97;1.95;;;6.80;79.70;;;;;;5086391;27;20037;-86
2022/03/08 11:45:21;;;;;;;4.47;2.50;;;6.80;83.40;;;;;;5090120;27;20048;-86
2022/03/08 11:47:54;;;;;;;15.75;5.85;;;6.80;85.80;;;;;;5091006;28;20103;-86
2022/03/08 11:50:32;;;;;;;14.20;5.00;;;6.80;86.50;;;;;;5074393;28;20043;-85
2022/03/08 11:53:11;;;;;;;9.75;4.93;;;6.90;95.70;;;;;;5088953;28;20058;-85
2022/03/08 11:55:42;;;;;;;13.38;4.47;;;7.00;96.20;;;;;;5112172;28;20182;-86
2022/03/08 11:58:10;;;;;;;5.93;2.92;;;6.90;96.20;;;;;;5092292;28;20387;-86
2022/03/08 12:00:42;;;;;;;6.72;2.45;;;7.00;89.40;;;;;;5074410;28;20022;-86
2022/03/08 12:03:14;;;;;;;10.43;2.92;;;6.90;86.40;;;;;;5092415;28;20474;-86
2022/03/08 12:05:42;;;;;;;8.07;4.03;;;6.90;90.60;;;;;;5092342;28;20040;-84
2022/03/08 12:08:29;;;;;;;7.22;3.55;;;6.90;91.60;;;;;;5092128;28;20039;-84
2022/03/08 12:11:00;;;;;;;7.45;3.67;;;6.90;95.20;;;;;;5074908;28;20063;-83
2022/03/08 12:13:28;;;;;;;11.45;3.40;;;6.90;97.00;;;;;;5094652;28;20024;-84
2022/03/08 12:16:09;;;;;;;10.75;5.57;;;6.90;94.50;;;;;;5100272;28;20036;-84
2022/03/08 12:18:41;;;;;;;6.32;3.50;;;7.00;95.60;;;;;;5083930;28;20031;-83
2022/03/08 12:21:21;;;;;;;11.85;4.35;;;6.90;93.80;;;;;;5115671;28;20467;-86
2022/03/08 12:23:57;;;;;;;5.07;3.33;;;7.00;92.60;;;;;;5113075;28;20475;-83
2022/03/08 12:26:30;;;;;;;7.75;2.28;;;7.10;91.20;;;;;;5112769;28;20024;-85
2022/03/08 12:29:05;;;;;;;6.45;2.40;;;7.10;92.10;;;;;;5104340;28;20064;-87
2022/03/08 12:31:30;;;;;;;7.28;2.67;;;7.20;90.90;;;;;;5092595;28;20027;-83
2022/03/08 12:34:06;;;;;;;6.13;3.58;;;7.20;91.80;;;;;;5092323;28;20473;-84
2022/03/08 12:36:33;;;;;;;;;;;7.30;90.50;;;;;;5093996;28;20038;-86
2022/03/08 12:38:59;;;;;;;7.75;2.97;;;7.30;85.40;;;;;;5089888;28;20379;-84
2022/03/08 12:41:27;;;;;;;9.57;3.03;;;7.30;86.30;;;;;;5090798;28;20020;-83
2022/03/08 12:43:58;;;;;;;3.28;2.30;;;7.40;79.10;;;;;;5091937;28;20484;-84
2022/03/08 12:46:24;;;;;;;5.35;2.65;;;7.40;79.90;;;;;;5092095;28;20081;-83
2022/03/08 12:48:52;;;;;;;4.40;2.45;;;7.40;84.30;;;;;;5092027;28;20480;-83